NZQN/ZQN METAR and TAF weather

Enter ICAO airport designator
Station Type Date Time Source
NZQN METAR UTC NOAA

Error!


Station Type Date Time Source
NZQN Decoded METAR UTC NOAA

Error!

Station Type Date Time Source
NZQN TAF 2019/10/22 11:09 UTC NOAA

TAF NZQN 221100Z 2211/2305 20018G30KT 9999 -SHRA SCT020 BKN040 PROB30
TEMPO 2211/2218 6000 SHRA BKN012
BECMG 2218/2220 20012KT
FM230000 26010KT 9999 SCT070

Example: see airport list